Terminal Aerodrome Forecast
Issued by NWS

Home | Current Version | Previous Version | Graphics & Text | Print | Product List | Glossary On
Versions: 1 2 3 4 5 6 7 8 9 10 11 12 13 14 15 16 17 18 19 20
000
FTUS43 KMPX 201720
TAFRNH
TAF
KRNH 201720Z 2018/2118 14010KT 6SM -RA BR BKN015 OVC025
      TEMPO 2018/2021 2SM SHRA BR OVC012
     FM202100 17011KT 4SM -RA BR BKN007 OVC012
     FM210100 22008KT 5SM BR VCSH BKN012 OVC025
     FM210400 28009KT P6SM BKN015
     FM211000 23003KT 4SM BR SCT015
     FM211400 18008KT P6SM SCT250=

USA.gov is the U.S. government's official web portal to all federal, state and local government web resources and services.